DLH4MH EDDM-GCTS
Flight info
| Callsign | DLH4MH |
|---|---|
| Flight time | N/A |
| Altitude | 37000 |
| Route | TURBU Y107 TOBSO DCT BAKOR DCT GEKBA DCT VAMTU DCT KOLON DCT GANGU DCT PADKO DCT DIVKO DCT NILDU DCT NENDA DCT BCN DCT RODRA DCT PEXOT DCT EBROX DCT LOTOS DCT TORDU DCT DIKUT DCT SOPET DCT VLC DCT SERRA DCT ASTRO DCT POBOS DCT XEBAR DCT YES DCT MAMIS DCT BAZAS DCT VIBAS DCT MGA DCT BRIKE DCT VJF/N0473F390 L82 RUNAX UL82 IBALU UN857 TERTO |
| Aircraft | A346/H-SDE2E3FGHIJ3J4J5M1RWXY/LB1D1 |
Departure
| Time | 2026-05-07 08:39 |
|---|---|
| Airport | Munich Airport (EDDM) |
Arrival
| Time | N/A |
|---|---|
| Airport | Tenerife Sur Airport (GCTS) |
| Time | Latitude | Longitude | Altitude | Speed | Heading |
|---|---|---|---|---|---|
| 2026-05-07 08:25 | 48.35530 | 11.79713 | 1494 ft | 0 kts | 83° |
| 2026-05-07 08:29 | 48.35530 | 11.79707 | 1477 ft | 3 kts | 83° |
| 2026-05-07 08:29 | 48.35527 | 11.79668 | 1483 ft | 4 kts | 83° |
| 2026-05-07 08:29 | 48.35524 | 11.79628 | 1477 ft | 4 kts | 88° |
| 2026-05-07 08:30 | 48.35526 | 11.79596 | 1477 ft | 4 kts | 117° |
| 2026-05-07 08:30 | 48.35533 | 11.79584 | 1477 ft | 3 kts | 146° |
| 2026-05-07 08:30 | 48.35554 | 11.79570 | 1477 ft | 4 kts | 172° |
| 2026-05-07 08:30 | 48.35581 | 11.79568 | 1477 ft | 4 kts | 176° |
| 2026-05-07 08:31 | 48.35588 | 11.79567 | 1477 ft | 0 kts | 173° |
| 2026-05-07 08:32 | 48.35573 | 11.79569 | 1481 ft | 4 kts | 173° |
| 2026-05-07 08:33 | 48.35531 | 11.79576 | 1477 ft | 8 kts | 173° |
| 2026-05-07 08:33 | 48.35460 | 11.79589 | 1481 ft | 12 kts | 173° |
| 2026-05-07 08:33 | 48.35364 | 11.79605 | 1487 ft | 15 kts | 173° |
| 2026-05-07 08:33 | 48.35256 | 11.79624 | 1490 ft | 16 kts | 173° |
| 2026-05-07 08:34 | 48.35135 | 11.79645 | 1485 ft | 19 kts | 173° |
| 2026-05-07 08:34 | 48.34999 | 11.79668 | 1494 ft | 21 kts | 173° |
| 2026-05-07 08:34 | 48.34867 | 11.79691 | 1482 ft | 16 kts | 173° |
| 2026-05-07 08:34 | 48.34812 | 11.79718 | 1482 ft | 5 kts | 120° |
| 2026-05-07 08:35 | 48.34810 | 11.79789 | 1486 ft | 8 kts | 84° |
| 2026-05-07 08:35 | 48.34817 | 11.79889 | 1494 ft | 11 kts | 84° |
| 2026-05-07 08:35 | 48.34826 | 11.80013 | 1480 ft | 13 kts | 84° |
| 2026-05-07 08:35 | 48.34837 | 11.80156 | 1483 ft | 15 kts | 83° |
| 2026-05-07 08:36 | 48.34837 | 11.80298 | 1480 ft | 12 kts | 109° |
| 2026-05-07 08:36 | 48.34785 | 11.80384 | 1477 ft | 11 kts | 154° |
| 2026-05-07 08:36 | 48.34726 | 11.80401 | 1491 ft | 3 kts | 174° |
| 2026-05-07 08:36 | 48.34714 | 11.80402 | 1494 ft | 0 kts | 174° |
| 2026-05-07 08:37 | 48.34707 | 11.80403 | 1490 ft | 2 kts | 174° |
| 2026-05-07 08:37 | 48.34685 | 11.80407 | 1482 ft | 5 kts | 174° |
| 2026-05-07 08:37 | 48.34644 | 11.80414 | 1480 ft | 7 kts | 174° |
| 2026-05-07 08:37 | 48.34586 | 11.80423 | 1480 ft | 10 kts | 174° |
| 2026-05-07 08:38 | 48.34520 | 11.80434 | 1488 ft | 4 kts | 174° |
| 2026-05-07 08:38 | 48.34497 | 11.80419 | 1482 ft | 5 kts | 219° |
| 2026-05-07 08:38 | 48.34473 | 11.80368 | 1481 ft | 7 kts | 249° |
| 2026-05-07 08:38 | 48.34463 | 11.80232 | 1483 ft | 30 kts | 264° |
| 2026-05-07 08:39 | 48.34416 | 11.79618 | 1491 ft | 87 kts | 263° |
| 2026-05-07 08:39 | 48.34325 | 11.78437 | 1487 ft | 138 kts | 263° |
| 2026-05-07 08:39 | 48.34192 | 11.76782 | 1515 ft | 177 kts | 263° |
| 2026-05-07 08:39 | 48.34045 | 11.74960 | 2157 ft | 170 kts | 264° |
| 2026-05-07 08:40 | 48.33902 | 11.73192 | 2831 ft | 171 kts | 257° |
| 2026-05-07 08:40 | 48.33299 | 11.71659 | 3350 ft | 179 kts | 223° |
| 2026-05-07 08:40 | 48.32103 | 11.70902 | 3632 ft | 201 kts | 190° |
| 2026-05-07 08:40 | 48.30655 | 11.70833 | 4005 ft | 214 kts | 186° |
| 2026-05-07 08:41 | 48.29144 | 11.70919 | 4487 ft | 223 kts | 174° |
| 2026-05-07 08:41 | 48.27675 | 11.71819 | 5031 ft | 236 kts | 154° |
| 2026-05-07 08:41 | 48.26244 | 11.73212 | 5371 ft | 255 kts | 150° |
| 2026-05-07 08:41 | 48.24733 | 11.74778 | 5772 ft | 271 kts | 149° |
| 2026-05-07 08:42 | 48.23150 | 11.76425 | 6383 ft | 280 kts | 150° |
| 2026-05-07 08:42 | 48.21554 | 11.78071 | 7112 ft | 283 kts | 150° |
| 2026-05-07 08:42 | 48.19925 | 11.79736 | 7915 ft | 284 kts | 150° |
| 2026-05-07 08:42 | 48.18238 | 11.81280 | 8687 ft | 284 kts | 158° |
| 2026-05-07 08:43 | 48.16433 | 11.82463 | 9489 ft | 283 kts | 165° |
| 2026-05-07 08:43 | 48.14562 | 11.83421 | 10274 ft | 286 kts | 166° |
| 2026-05-07 08:43 | 48.12634 | 11.84367 | 10809 ft | 299 kts | 166° |
| 2026-05-07 08:43 | 48.10604 | 11.85358 | 11241 ft | 315 kts | 166° |
| 2026-05-07 08:44 | 48.08467 | 11.86407 | 11643 ft | 332 kts | 166° |
| 2026-05-07 08:44 | 48.06215 | 11.87520 | 12046 ft | 349 kts | 165° |
| 2026-05-07 08:44 | 48.03857 | 11.88689 | 12414 ft | 366 kts | 165° |
| 2026-05-07 08:44 | 48.01397 | 11.89910 | 12913 ft | 377 kts | 165° |
| 2026-05-07 08:45 | 47.98896 | 11.91153 | 13719 ft | 380 kts | 165° |
| 2026-05-07 08:45 | 47.96378 | 11.92404 | 14493 ft | 382 kts | 165° |
| 2026-05-07 08:45 | 47.93837 | 11.93606 | 15213 ft | 384 kts | 168° |
| 2026-05-07 08:45 | 47.91212 | 11.94416 | 15895 ft | 387 kts | 174° |
| 2026-05-07 08:46 | 47.88523 | 11.94769 | 16539 ft | 390 kts | 180° |
| 2026-05-07 08:46 | 47.85800 | 11.94776 | 17209 ft | 393 kts | 182° |
| 2026-05-07 08:46 | 47.83047 | 11.94721 | 17898 ft | 397 kts | 183° |
| 2026-05-07 08:46 | 47.80270 | 11.94657 | 18497 ft | 401 kts | 183° |
| 2026-05-07 08:47 | 47.77500 | 11.94598 | 19008 ft | 405 kts | 183° |
| 2026-05-07 08:47 | 47.74669 | 11.94542 | 19554 ft | 408 kts | 183° |
| 2026-05-07 08:47 | 47.71824 | 11.94490 | 20119 ft | 409 kts | 183° |
| 2026-05-07 08:47 | 47.68970 | 11.94441 | 20656 ft | 411 kts | 183° |
| 2026-05-07 08:48 | 47.66105 | 11.94394 | 21156 ft | 412 kts | 183° |
| 2026-05-07 08:48 | 47.63230 | 11.94342 | 21671 ft | 414 kts | 183° |
| 2026-05-07 08:48 | 47.60336 | 11.94292 | 22159 ft | 416 kts | 183° |
| 2026-05-07 08:48 | 47.57431 | 11.94241 | 22584 ft | 418 kts | 183° |
| 2026-05-07 08:49 | 47.54554 | 11.94189 | 22944 ft | 421 kts | 183° |
| 2026-05-07 08:49 | 47.51621 | 11.94138 | 23383 ft | 422 kts | 183° |
| 2026-05-07 08:49 | 47.48677 | 11.94087 | 23783 ft | 424 kts | 183° |
| 2026-05-07 08:49 | 47.45716 | 11.94023 | 24151 ft | 425 kts | 184° |
| 2026-05-07 08:50 | 47.42757 | 11.93786 | 24616 ft | 425 kts | 187° |
| 2026-05-07 08:50 | 47.39815 | 11.93326 | 25145 ft | 425 kts | 190° |
| 2026-05-07 08:50 | 47.36885 | 11.92730 | 25647 ft | 426 kts | 190° |
| 2026-05-07 08:50 | 47.33937 | 11.92147 | 26168 ft | 428 kts | 190° |
| 2026-05-07 08:51 | 47.30979 | 11.91564 | 26686 ft | 429 kts | 190° |
| 2026-05-07 08:51 | 47.28012 | 11.90978 | 27163 ft | 430 kts | 190° |
| 2026-05-07 08:51 | 47.25037 | 11.90388 | 27631 ft | 432 kts | 190° |
| 2026-05-07 08:51 | 47.22052 | 11.89796 | 28097 ft | 433 kts | 191° |
| 2026-05-07 08:52 | 47.19064 | 11.89203 | 28526 ft | 434 kts | 190° |
| 2026-05-07 08:52 | 47.16072 | 11.88610 | 29070 ft | 432 kts | 191° |
| 2026-05-07 08:52 | 47.13111 | 11.88023 | 29900 ft | 428 kts | 191° |
| 2026-05-07 08:52 | 47.10213 | 11.87450 | 30580 ft | 423 kts | 191° |
| 2026-05-07 08:53 | 47.07304 | 11.86872 | 31077 ft | 421 kts | 191° |
| 2026-05-07 08:53 | 47.04399 | 11.86299 | 31504 ft | 421 kts | 191° |
| 2026-05-07 08:53 | 47.01505 | 11.85638 | 31909 ft | 421 kts | 193° |
| 2026-05-07 08:53 | 46.98639 | 11.84779 | 32328 ft | 420 kts | 195° |
| 2026-05-07 08:54 | 46.95781 | 11.83857 | 32731 ft | 420 kts | 195° |
| 2026-05-07 08:54 | 46.92911 | 11.82955 | 33116 ft | 422 kts | 195° |
| 2026-05-07 08:54 | 46.90043 | 11.82053 | 33523 ft | 422 kts | 195° |
| 2026-05-07 08:54 | 46.87171 | 11.81146 | 33882 ft | 423 kts | 195° |
| 2026-05-07 08:55 | 46.84279 | 11.80232 | 34208 ft | 423 kts | 195° |
| 2026-05-07 08:55 | 46.81400 | 11.79321 | 34521 ft | 424 kts | 195° |
| 2026-05-07 08:55 | 46.78517 | 11.78409 | 34826 ft | 425 kts | 195° |
| 2026-05-07 08:55 | 46.75660 | 11.77506 | 35109 ft | 426 kts | 195° |
| 2026-05-07 08:56 | 46.72756 | 11.76589 | 35358 ft | 428 kts | 195° |
| 2026-05-07 08:56 | 46.69848 | 11.75596 | 35591 ft | 428 kts | 198° |
| 2026-05-07 08:56 | 46.67017 | 11.74225 | 35804 ft | 429 kts | 204° |
| 2026-05-07 08:56 | 46.64288 | 11.72458 | 36010 ft | 430 kts | 208° |
| 2026-05-07 08:57 | 46.61683 | 11.70311 | 36209 ft | 431 kts | 213° |
| 2026-05-07 08:57 | 46.59221 | 11.67799 | 36442 ft | 433 kts | 219° |
| 2026-05-07 08:57 | 46.56932 | 11.64945 | 36636 ft | 434 kts | 224° |
| 2026-05-07 08:57 | 46.54839 | 11.61771 | 36850 ft | 436 kts | 229° |
| 2026-05-07 08:58 | 46.52898 | 11.58364 | 36976 ft | 438 kts | 230° |
| 2026-05-07 08:58 | 46.50973 | 11.54922 | 36980 ft | 439 kts | 230° |
| 2026-05-07 08:58 | 46.47120 | 11.48005 | 36999 ft | 440 kts | 231° |
| 2026-05-07 08:59 | 46.43290 | 11.41133 | 37005 ft | 440 kts | 231° |
| 2026-05-07 08:59 | 46.39435 | 11.34227 | 36956 ft | 440 kts | 231° |
| 2026-05-07 09:00 | 46.35580 | 11.27339 | 36995 ft | 439 kts | 231° |
| 2026-05-07 09:00 | 46.31712 | 11.20445 | 37032 ft | 441 kts | 231° |
| 2026-05-07 09:01 | 46.27833 | 11.13546 | 37025 ft | 441 kts | 231° |
| 2026-05-07 09:01 | 46.23950 | 11.06657 | 37027 ft | 441 kts | 231° |
| 2026-05-07 09:02 | 46.20070 | 10.99788 | 37023 ft | 441 kts | 231° |
| 2026-05-07 09:02 | 46.16180 | 10.92923 | 37004 ft | 441 kts | 231° |
| 2026-05-07 09:03 | 46.12283 | 10.86060 | 37003 ft | 442 kts | 231° |
| 2026-05-07 09:03 | 46.08405 | 10.79250 | 36996 ft | 442 kts | 230° |
| 2026-05-07 09:04 | 46.04494 | 10.72402 | 36992 ft | 443 kts | 231° |
| 2026-05-07 09:04 | 46.00559 | 10.65524 | 37000 ft | 444 kts | 231° |
| 2026-05-07 09:05 | 45.96627 | 10.58666 | 36999 ft | 444 kts | 231° |
| 2026-05-07 09:05 | 45.92685 | 10.51809 | 36999 ft | 444 kts | 231° |
| 2026-05-07 09:06 | 45.88744 | 10.44971 | 36983 ft | 444 kts | 231° |
| 2026-05-07 09:06 | 45.84804 | 10.38151 | 36999 ft | 442 kts | 231° |
| 2026-05-07 09:07 | 45.80893 | 10.31402 | 37001 ft | 442 kts | 231° |
| 2026-05-07 09:07 | 45.76961 | 10.24629 | 37024 ft | 442 kts | 231° |
| 2026-05-07 09:08 | 45.73005 | 10.17837 | 37006 ft | 444 kts | 231° |
| 2026-05-07 09:08 | 45.69039 | 10.11038 | 36988 ft | 443 kts | 231° |
| 2026-05-07 09:09 | 45.65087 | 10.04280 | 37015 ft | 442 kts | 231° |
| 2026-05-07 09:09 | 45.61132 | 9.97531 | 37020 ft | 442 kts | 231° |
| 2026-05-07 09:10 | 45.57199 | 9.90839 | 37022 ft | 442 kts | 231° |
| 2026-05-07 09:10 | 45.53233 | 9.84107 | 37017 ft | 442 kts | 231° |
| 2026-05-07 09:11 | 45.49270 | 9.77397 | 37020 ft | 442 kts | 231° |
| 2026-05-07 09:11 | 45.45298 | 9.70687 | 37082 ft | 443 kts | 231° |
| 2026-05-07 09:12 | 45.41315 | 9.63973 | 37082 ft | 443 kts | 231° |
| 2026-05-07 09:12 | 45.38006 | 9.58408 | 37077 ft | 443 kts | 231° |
| 2026-05-07 09:13 | 45.34010 | 9.51705 | 37060 ft | 443 kts | 231° |
| 2026-05-07 09:13 | 45.29374 | 9.43945 | 37045 ft | 443 kts | 231° |
| 2026-05-07 09:14 | 45.26026 | 9.38353 | 37032 ft | 443 kts | 231° |
| 2026-05-07 09:14 | 45.22032 | 9.31700 | 37007 ft | 443 kts | 231° |
| 2026-05-07 09:15 | 45.18050 | 9.25085 | 37013 ft | 443 kts | 231° |
| 2026-05-07 09:15 | 45.14038 | 9.18435 | 37012 ft | 444 kts | 231° |
| 2026-05-07 09:16 | 45.10017 | 9.11780 | 37008 ft | 444 kts | 231° |
| 2026-05-07 09:16 | 45.05989 | 9.05132 | 37007 ft | 444 kts | 231° |
| 2026-05-07 09:17 | 45.01966 | 8.98508 | 36985 ft | 444 kts | 231° |
| 2026-05-07 09:17 | 44.97965 | 8.91937 | 37006 ft | 443 kts | 231° |
| 2026-05-07 09:18 | 44.93935 | 8.85333 | 37011 ft | 442 kts | 231° |
| 2026-05-07 09:18 | 44.89910 | 8.78752 | 37034 ft | 442 kts | 231° |
| 2026-05-07 09:19 | 44.85875 | 8.72174 | 37015 ft | 443 kts | 231° |
| 2026-05-07 09:19 | 44.81845 | 8.65615 | 37007 ft | 442 kts | 231° |
| 2026-05-07 09:20 | 44.77844 | 8.59117 | 37011 ft | 441 kts | 231° |
| 2026-05-07 09:20 | 44.73815 | 8.52591 | 37013 ft | 441 kts | 231° |
| 2026-05-07 09:21 | 44.69777 | 8.46065 | 37016 ft | 441 kts | 231° |
| 2026-05-07 09:21 | 44.65742 | 8.39559 | 37008 ft | 440 kts | 231° |
| 2026-05-07 09:22 | 44.61714 | 8.33080 | 37034 ft | 439 kts | 231° |
| 2026-05-07 09:22 | 44.57688 | 8.26622 | 37017 ft | 439 kts | 231° |
| 2026-05-07 09:23 | 44.53683 | 8.20206 | 37012 ft | 439 kts | 231° |
| 2026-05-07 09:23 | 44.49644 | 8.13750 | 37016 ft | 440 kts | 231° |
| 2026-05-07 09:24 | 44.45604 | 8.07312 | 37018 ft | 440 kts | 231° |
| 2026-05-07 09:24 | 44.41559 | 8.00879 | 37021 ft | 440 kts | 231° |
| 2026-05-07 09:25 | 44.37512 | 7.94456 | 37020 ft | 440 kts | 231° |
| 2026-05-07 09:25 | 44.33453 | 7.88028 | 36999 ft | 441 kts | 231° |
| 2026-05-07 09:26 | 44.29394 | 7.81621 | 37006 ft | 440 kts | 230° |
| 2026-05-07 09:26 | 44.25075 | 7.75523 | 37015 ft | 442 kts | 225° |
| 2026-05-07 09:27 | 44.20469 | 7.69825 | 36997 ft | 442 kts | 225° |
| 2026-05-07 09:28 | 44.13746 | 7.61075 | 36998 ft | 439 kts | 229° |
| 2026-05-07 09:28 | 44.09730 | 7.54766 | 37014 ft | 437 kts | 231° |
| 2026-05-07 09:29 | 44.05720 | 7.48375 | 37007 ft | 437 kts | 231° |
| 2026-05-07 09:29 | 44.01718 | 7.42000 | 37008 ft | 437 kts | 231° |
| 2026-05-07 09:30 | 43.97702 | 7.35613 | 36985 ft | 436 kts | 231° |
| 2026-05-07 09:30 | 43.93719 | 7.29287 | 37000 ft | 434 kts | 232° |
| 2026-05-07 09:31 | 43.89741 | 7.22979 | 37014 ft | 434 kts | 232° |
| 2026-05-07 09:31 | 43.85765 | 7.16688 | 37002 ft | 433 kts | 231° |
| 2026-05-07 09:32 | 43.81807 | 7.10443 | 37007 ft | 433 kts | 231° |
| 2026-05-07 09:32 | 43.77862 | 7.04156 | 36995 ft | 432 kts | 233° |
| 2026-05-07 09:33 | 43.74274 | 6.97495 | 36994 ft | 429 kts | 238° |
| 2026-05-07 09:33 | 43.71178 | 6.90444 | 37001 ft | 428 kts | 243° |
| 2026-05-07 09:34 | 43.68582 | 6.83027 | 36999 ft | 428 kts | 248° |
| 2026-05-07 09:34 | 43.66332 | 6.75458 | 36998 ft | 428 kts | 249° |
| 2026-05-07 09:35 | 43.64069 | 6.67842 | 36994 ft | 428 kts | 249° |
| 2026-05-07 09:35 | 43.61804 | 6.60215 | 36988 ft | 427 kts | 249° |
| 2026-05-07 09:36 | 43.59545 | 6.52624 | 36990 ft | 427 kts | 249° |
| 2026-05-07 09:36 | 43.57283 | 6.45035 | 37006 ft | 427 kts | 248° |
| 2026-05-07 09:37 | 43.55019 | 6.37460 | 37003 ft | 427 kts | 248° |
| 2026-05-07 09:37 | 43.52759 | 6.29923 | 37000 ft | 427 kts | 248° |
| 2026-05-07 09:38 | 43.50476 | 6.22333 | 36998 ft | 427 kts | 248° |
| 2026-05-07 09:38 | 43.48191 | 6.14757 | 36998 ft | 427 kts | 248° |